sensor_id;sensor_type;location;lat;lon;timestamp;pressure;altitude;pressure_sealevel;temperature;humidity
12247;BME280;6186;52.022;4.692;2023-05-22T00:01:55;101685.44;;;16.02;75.31
12247;BME280;6186;52.022;4.692;2023-05-22T00:04:20;101679.38;;;15.99;75.76
12247;BME280;6186;52.022;4.692;2023-05-22T00:06:46;101684.69;;;15.99;75.44
12247;BME280;6186;52.022;4.692;2023-05-22T00:09:12;101676.88;;;15.94;75.52
12247;BME280;6186;52.022;4.692;2023-05-22T00:11:37;101677.84;;;15.92;75.58
12247;BME280;6186;52.022;4.692;2023-05-22T00:14:02;101692.03;;;15.91;75.82
12247;BME280;6186;52.022;4.692;2023-05-22T00:16:27;101692.13;;;15.88;75.82
12247;BME280;6186;52.022;4.692;2023-05-22T00:18:53;101684.47;;;15.79;75.76
12247;BME280;6186;52.022;4.692;2023-05-22T00:21:19;101705.66;;;15.80;75.97
12247;BME280;6186;52.022;4.692;2023-05-22T00:23:44;101701.34;;;15.78;75.97
12247;BME280;6186;52.022;4.692;2023-05-22T00:26:09;101697.94;;;15.73;76.20
12247;BME280;6186;52.022;4.692;2023-05-22T00:28:34;101712.03;;;15.75;76.43
12247;BME280;6186;52.022;4.692;2023-05-22T00:30:59;101704.03;;;15.76;76.74
12247;BME280;6186;52.022;4.692;2023-05-22T00:33:25;101688.06;;;15.78;76.97
12247;BME280;6186;52.022;4.692;2023-05-22T00:35:50;101688.00;;;15.79;77.24
12247;BME280;6186;52.022;4.692;2023-05-22T00:38:33;101672.94;;;15.80;77.38
12247;BME280;6186;52.022;4.692;2023-05-22T00:40:59;101673.84;;;15.79;77.28
12247;BME280;6186;52.022;4.692;2023-05-22T00:43:24;101675.59;;;15.80;77.31
12247;BME280;6186;52.022;4.692;2023-05-22T00:45:50;101667.66;;;15.78;77.30
12247;BME280;6186;52.022;4.692;2023-05-22T00:48:15;101661.50;;;15.78;77.51
12247;BME280;6186;52.022;4.692;2023-05-22T00:50:41;101655.38;;;15.76;77.56
12247;BME280;6186;52.022;4.692;2023-05-22T00:53:06;101659.88;;;15.74;77.58
12247;BME280;6186;52.022;4.692;2023-05-22T00:55:32;101646.81;;;15.68;77.82
12247;BME280;6186;52.022;4.692;2023-05-22T00:57:57;101657.31;;;15.71;77.85
12247;BME280;6186;52.022;4.692;2023-05-22T01:00:23;101653.81;;;15.69;77.95
12247;BME280;6186;52.022;4.692;2023-05-22T01:02:48;101643.31;;;15.66;77.96
12247;BME280;6186;52.022;4.692;2023-05-22T01:05:13;101630.06;;;15.66;78.21
12247;BME280;6186;52.022;4.692;2023-05-22T01:07:38;101622.09;;;15.66;78.31
12247;BME280;6186;52.022;4.692;2023-05-22T01:10:04;101618.75;;;15.61;78.39
12247;BME280;6186;52.022;4.692;2023-05-22T01:12:39;101634.53;;;15.64;78.52
12247;BME280;6186;52.022;4.692;2023-05-22T01:15:12;101627.53;;;15.63;78.55
12247;BME280;6186;52.022;4.692;2023-05-22T01:17:47;101613.50;;;15.58;78.66
12247;BME280;6186;52.022;4.692;2023-05-22T01:20:42;101611.69;;;15.60;79.00
12247;BME280;6186;52.022;4.692;2023-05-22T01:23:30;101613.38;;;15.62;79.21
12247;BME280;6186;52.022;4.692;2023-05-22T01:26:18;101615.16;;;15.62;79.30
12247;BME280;6186;52.022;4.692;2023-05-22T01:29:00;101623.09;;;15.62;79.38
12247;BME280;6186;52.022;4.692;2023-05-22T01:31:30;101608.13;;;15.61;79.52
12247;BME280;6186;52.022;4.692;2023-05-22T01:34:01;101595.94;;;15.54;79.47
12247;BME280;6186;52.022;4.692;2023-05-22T01:36:30;101596.06;;;15.51;79.44
12247;BME280;6186;52.022;4.692;2023-05-22T01:38:58;101601.38;;;15.51;79.70
12247;BME280;6186;52.022;4.692;2023-05-22T01:41:24;101596.19;;;15.48;79.67
12247;BME280;6186;52.022;4.692;2023-05-22T01:43:49;101583.13;;;15.42;79.73
12247;BME280;6186;52.022;4.692;2023-05-22T01:46:14;101579.59;;;15.40;79.82
12247;BME280;6186;52.022;4.692;2023-05-22T01:48:39;101591.00;;;15.43;79.99
12247;BME280;6186;52.022;4.692;2023-05-22T01:51:14;101587.63;;;15.38;80.03
12247;BME280;6186;52.022;4.692;2023-05-22T01:53:46;101585.16;;;15.32;80.09
12247;BME280;6186;52.022;4.692;2023-05-22T01:56:24;101595.72;;;15.34;80.17
12247;BME280;6186;52.022;4.692;2023-05-22T01:59:05;101587.13;;;15.26;80.28
12247;BME280;6186;52.022;4.692;2023-05-22T02:01:35;101590.56;;;15.29;80.42
12247;BME280;6186;52.022;4.692;2023-05-22T02:04:03;101580.19;;;15.22;80.53
12247;BME280;6186;52.022;4.692;2023-05-22T02:06:31;101584.59;;;15.23;80.56
12247;BME280;6186;52.022;4.692;2023-05-22T02:08:58;101576.69;;;15.21;80.65
12247;BME280;6186;52.022;4.692;2023-05-22T02:11:25;101574.94;;;15.20;80.88
12247;BME280;6186;52.022;4.692;2023-05-22T02:13:51;101577.66;;;15.19;81.03
12247;BME280;6186;52.022;4.692;2023-05-22T02:16:16;101578.53;;;15.19;81.16
12247;BME280;6186;52.022;4.692;2023-05-22T02:18:42;101572.41;;;15.17;81.39
12247;BME280;6186;52.022;4.692;2023-05-22T02:21:07;101571.63;;;15.14;81.47
12247;BME280;6186;52.022;4.692;2023-05-22T02:23:33;101583.00;;;15.17;81.52
12247;BME280;6186;52.022;4.692;2023-05-22T02:25:58;101591.03;;;15.16;81.68
12247;BME280;6186;52.022;4.692;2023-05-22T02:28:24;101584.84;;;15.15;81.76
12247;BME280;6186;52.022;4.692;2023-05-22T02:30:49;101584.91;;;15.14;81.85
12247;BME280;6186;52.022;4.692;2023-05-22T02:33:14;101597.34;;;15.12;82.05
12247;BME280;6186;52.022;4.692;2023-05-22T02:35:40;101597.34;;;15.12;82.27
12247;BME280;6186;52.022;4.692;2023-05-22T02:38:05;101605.09;;;15.18;82.42
12247;BME280;6186;52.022;4.692;2023-05-22T02:40:30;101607.78;;;15.16;82.51
12247;BME280;6186;52.022;4.692;2023-05-22T02:42:55;101603.41;;;15.15;82.56
12247;BME280;6186;52.022;4.692;2023-05-22T02:45:21;101606.13;;;15.14;82.58
12247;BME280;6186;52.022;4.692;2023-05-22T02:47:46;101600.88;;;15.10;82.54
12247;BME280;6186;52.022;4.692;2023-05-22T02:50:11;101592.13;;;15.08;82.84
12247;BME280;6186;52.022;4.692;2023-05-22T02:52:36;101577.22;;;15.04;82.85
12247;BME280;6186;52.022;4.692;2023-05-22T02:55:02;101581.66;;;15.04;82.91
12247;BME280;6186;52.022;4.692;2023-05-22T02:57:28;101574.63;;;15.03;82.88
12247;BME280;6186;52.022;4.692;2023-05-22T02:59:53;101579.16;;;14.99;82.94
12247;BME280;6186;52.022;4.692;2023-05-22T03:02:18;101582.69;;;15.00;83.26
12247;BME280;6186;52.022;4.692;2023-05-22T03:04:43;101583.56;;;14.99;83.38
12247;BME280;6186;52.022;4.692;2023-05-22T03:07:09;101578.28;;;14.99;83.49
12247;BME280;6186;52.022;4.692;2023-05-22T03:09:34;101580.09;;;14.98;83.50
12247;BME280;6186;52.022;4.692;2023-05-22T03:11:59;101575.69;;;14.97;83.80
12247;BME280;6186;52.022;4.692;2023-05-22T03:14:24;101578.34;;;14.97;83.89
12247;BME280;6186;52.022;4.692;2023-05-22T03:16:49;101566.97;;;14.94;83.71
12247;BME280;6186;52.022;4.692;2023-05-22T03:19:15;101562.66;;;14.90;84.01
12247;BME280;6186;52.022;4.692;2023-05-22T03:21:41;101577.56;;;14.94;84.14
12247;BME280;6186;52.022;4.692;2023-05-22T03:24:06;101577.63;;;14.92;84.33
12247;BME280;6186;52.022;4.692;2023-05-22T03:26:33;101579.34;;;14.93;84.48
12247;BME280;6186;52.022;4.692;2023-05-22T03:28:58;101572.25;;;14.94;84.66
12247;BME280;6186;52.022;4.692;2023-05-22T03:31:24;101560.88;;;14.90;84.60
12247;BME280;6186;52.022;4.692;2023-05-22T03:33:49;101557.41;;;14.88;84.68
12247;BME280;6186;52.022;4.692;2023-05-22T03:36:15;101569.66;;;14.92;85.01
12247;BME280;6186;52.022;4.692;2023-05-22T03:38:40;101574.03;;;14.93;85.17
12247;BME280;6186;52.022;4.692;2023-05-22T03:41:05;101567.91;;;14.91;85.10
12247;BME280;6186;52.022;4.692;2023-05-22T03:43:30;101561.00;;;14.87;85.30
12247;BME280;6186;52.022;4.692;2023-05-22T03:45:56;101559.13;;;14.89;85.59
12247;BME280;6186;52.022;4.692;2023-05-22T03:48:21;101560.84;;;14.92;85.71
12247;BME280;6186;52.022;4.692;2023-05-22T03:50:46;101559.13;;;14.91;85.82
12247;BME280;6186;52.022;4.692;2023-05-22T03:53:11;101566.19;;;14.90;85.88
12247;BME280;6186;52.022;4.692;2023-05-22T03:55:37;101571.38;;;14.93;86.16
12247;BME280;6186;52.022;4.692;2023-05-22T03:58:02;101559.06;;;14.92;86.49
12247;BME280;6186;52.022;4.692;2023-05-22T04:00:28;101567.84;;;14.94;86.57
12247;BME280;6186;52.022;4.692;2023-05-22T04:02:53;101567.00;;;14.92;86.76
12247;BME280;6186;52.022;4.692;2023-05-22T04:05:19;101563.66;;;14.86;86.89
12247;BME280;6186;52.022;4.692;2023-05-22T04:07:44;101564.50;;;14.88;87.12
12247;BME280;6186;52.022;4.692;2023-05-22T04:10:09;101566.31;;;14.87;87.34
12247;BME280;6186;52.022;4.692;2023-05-22T04:12:35;101567.09;;;14.89;87.57
12247;BME280;6186;52.022;4.692;2023-05-22T04:15:00;101565.31;;;14.90;87.62
12247;BME280;6186;52.022;4.692;2023-05-22T04:17:30;101570.53;;;14.93;87.96
12247;BME280;6186;52.022;4.692;2023-05-22T04:19:56;101581.09;;;14.94;88.05
12247;BME280;6186;52.022;4.692;2023-05-22T04:22:21;101572.19;;;14.95;88.38
12247;BME280;6186;52.022;4.692;2023-05-22T04:24:46;101572.19;;;14.95;88.47
12247;BME280;6186;52.022;4.692;2023-05-22T04:27:11;101568.66;;;14.96;88.64
12247;BME280;6186;52.022;4.692;2023-05-22T04:29:36;101569.56;;;14.95;88.80
12247;BME280;6186;52.022;4.692;2023-05-22T04:32:02;101578.50;;;14.93;89.14
12247;BME280;6186;52.022;4.692;2023-05-22T04:34:27;101580.22;;;14.94;89.32
12247;BME280;6186;52.022;4.692;2023-05-22T04:36:52;101574.91;;;14.94;89.58
12247;BME280;6186;52.022;4.692;2023-05-22T04:39:18;101568.72;;;14.93;89.78
12247;BME280;6186;52.022;4.692;2023-05-22T04:41:43;101573.13;;;14.94;90.03
12247;BME280;6186;52.022;4.692;2023-05-22T04:44:08;101575.69;;;14.97;90.43
12247;BME280;6186;52.022;4.692;2023-05-22T04:46:33;101566.00;;;14.96;90.45
12247;BME280;6186;52.022;4.692;2023-05-22T04:49:01;101586.97;;;15.04;90.70
12247;BME280;6186;52.022;4.692;2023-05-22T04:51:27;101591.28;;;15.06;90.95
12247;BME280;6186;52.022;4.692;2023-05-22T04:53:52;101590.44;;;15.06;91.07
12247;BME280;6186;52.022;4.692;2023-05-22T04:56:17;101590.41;;;15.07;91.23
12247;BME280;6186;52.022;4.692;2023-05-22T04:58:42;101588.63;;;15.06;91.39
12247;BME280;6186;52.022;4.692;2023-05-22T05:01:08;101590.41;;;15.07;91.69
12247;BME280;6186;52.022;4.692;2023-05-22T05:03:33;101595.69;;;15.07;91.86
12247;BME280;6186;52.022;4.692;2023-05-22T05:05:58;101592.84;;;15.14;92.25
12247;BME280;6186;52.022;4.692;2023-05-22T05:08:23;101588.44;;;15.13;92.37
12247;BME280;6186;52.022;4.692;2023-05-22T05:10:49;101590.97;;;15.17;92.47
12247;BME280;6186;52.022;4.692;2023-05-22T05:13:14;101600.63;;;15.20;92.73
12247;BME280;6186;52.022;4.692;2023-05-22T05:15:39;101599.63;;;15.22;92.98
12247;BME280;6186;52.022;4.692;2023-05-22T05:18:04;101599.50;;;15.27;93.29
12247;BME280;6186;52.022;4.692;2023-05-22T05:20:30;101603.78;;;15.31;93.56
12247;BME280;6186;52.022;4.692;2023-05-22T05:22:55;101596.59;;;15.34;93.69
12247;BME280;6186;52.022;4.692;2023-05-22T05:25:20;101601.72;;;15.39;94.07
12247;BME280;6186;52.022;4.692;2023-05-22T05:27:46;101605.25;;;15.39;94.18
12247;BME280;6186;52.022;4.692;2023-05-22T05:30:11;101610.53;;;15.42;94.13
12247;BME280;6186;52.022;4.692;2023-05-22T05:32:37;101610.47;;;15.44;94.32
12247;BME280;6186;52.022;4.692;2023-05-22T05:35:02;101605.03;;;15.47;94.58
12247;BME280;6186;52.022;4.692;2023-05-22T05:37:28;101600.72;;;15.44;94.82
12247;BME280;6186;52.022;4.692;2023-05-22T05:39:53;101605.81;;;15.50;95.21
12247;BME280;6186;52.022;4.692;2023-05-22T05:42:18;101609.13;;;15.57;95.41
12247;BME280;6186;52.022;4.692;2023-05-22T05:44:44;101606.28;;;15.63;95.80
12247;BME280;6186;52.022;4.692;2023-05-22T05:47:09;101607.88;;;15.68;96.20
12247;BME280;6186;52.022;4.692;2023-05-22T05:49:34;101604.00;;;15.77;96.57
12247;BME280;6186;52.022;4.692;2023-05-22T05:51:59;101616.19;;;15.82;96.87
12247;BME280;6186;52.022;4.692;2023-05-22T05:54:25;101608.09;;;15.87;97.03
12247;BME280;6186;52.022;4.692;2023-05-22T05:56:50;101611.56;;;15.89;97.12
12247;BME280;6186;52.022;4.692;2023-05-22T05:59:15;101634.59;;;15.88;96.94
12247;BME280;6186;52.022;4.692;2023-05-22T06:01:43;101614.22;;;15.89;97.09
12247;BME280;6186;52.022;4.692;2023-05-22T06:04:09;101624.03;;;15.87;97.03
12247;BME280;6186;52.022;4.692;2023-05-22T06:06:34;101626.78;;;15.84;97.21
12247;BME280;6186;52.022;4.692;2023-05-22T06:08:59;101625.88;;;15.85;97.15
12247;BME280;6186;52.022;4.692;2023-05-22T06:11:24;101631.13;;;15.86;97.50
12247;BME280;6186;52.022;4.692;2023-05-22T06:13:50;101627.50;;;15.89;97.76
12247;BME280;6186;52.022;4.692;2023-05-22T06:16:15;101638.81;;;15.94;98.06
12247;BME280;6186;52.022;4.692;2023-05-22T06:18:40;101639.56;;;15.97;98.19
12247;BME280;6186;52.022;4.692;2023-05-22T06:21:05;101628.00;;;16.00;98.53
12247;BME280;6186;52.022;4.692;2023-05-22T06:23:31;101629.69;;;16.02;98.54
12247;BME280;6186;52.022;4.692;2023-05-22T06:25:56;101628.69;;;16.05;98.78
12247;BME280;6186;52.022;4.692;2023-05-22T06:28:21;101624.16;;;16.09;99.08
12247;BME280;6186;52.022;4.692;2023-05-22T06:30:46;101625.13;;;16.06;99.11
12247;BME280;6186;52.022;4.692;2023-05-22T06:33:11;101636.38;;;16.13;99.29
12247;BME280;6186;52.022;4.692;2023-05-22T06:35:37;101633.63;;;16.16;99.52
12247;BME280;6186;52.022;4.692;2023-05-22T06:38:02;101631.72;;;16.19;99.68
12247;BME280;6186;52.022;4.692;2023-05-22T06:40:27;101640.41;;;16.24;100.00
12247;BME280;6186;52.022;4.692;2023-05-22T06:42:52;101642.16;;;16.25;100.00
12247;BME280;6186;52.022;4.692;2023-05-22T06:45:18;101616.00;;;16.13;100.00
12247;BME280;6186;52.022;4.692;2023-05-22T06:47:43;101633.97;;;16.31;100.00
12247;BME280;6186;52.022;4.692;2023-05-22T06:50:08;101633.84;;;16.34;100.00
12247;BME280;6186;52.022;4.692;2023-05-22T06:52:34;101635.56;;;16.35;100.00
12247;BME280;6186;52.022;4.692;2023-05-22T06:54:59;101640.78;;;16.38;100.00
12247;BME280;6186;52.022;4.692;2023-05-22T06:57:24;101633.50;;;16.43;100.00
12247;BME280;6186;52.022;4.692;2023-05-22T06:59:49;101628.00;;;16.49;100.00
12247;BME280;6186;52.022;4.692;2023-05-22T07:02:15;101635.75;;;16.55;100.00
12247;BME280;6186;52.022;4.692;2023-05-22T07:04:40;101633.78;;;16.60;100.00
12247;BME280;6186;52.022;4.692;2023-05-22T07:07:05;101637.25;;;16.62;100.00
12247;BME280;6186;52.022;4.692;2023-05-22T07:09:30;101645.09;;;16.65;100.00
12247;BME280;6186;52.022;4.692;2023-05-22T07:11:55;101641.31;;;16.72;100.00
12247;BME280;6186;52.022;4.692;2023-05-22T07:14:21;101656.09;;;16.79;100.00
12247;BME280;6186;52.022;4.692;2023-05-22T07:16:46;101656.78;;;16.84;100.00
12247;BME280;6186;52.022;4.692;2023-05-22T07:19:11;101665.34;;;16.92;100.00
12247;BME280;6186;52.022;4.692;2023-05-22T07:21:36;101661.47;;;17.01;100.00
12247;BME280;6186;52.022;4.692;2023-05-22T07:24:02;101654.97;;;17.08;100.00
12247;BME280;6186;52.022;4.692;2023-05-22T07:26:27;101657.22;;;17.19;100.00
12247;BME280;6186;52.022;4.692;2023-05-22T07:28:53;101658.53;;;17.30;100.00
12247;BME280;6186;52.022;4.692;2023-05-22T07:31:18;101655.19;;;17.47;100.00
12247;BME280;6186;52.022;4.692;2023-05-22T07:33:43;101664.38;;;17.61;100.00
12247;BME280;6186;52.022;4.692;2023-05-22T07:36:08;101663.50;;;17.82;100.00
12247;BME280;6186;52.022;4.692;2023-05-22T07:38:33;101661.81;;;18.02;100.00
12247;BME280;6186;52.022;4.692;2023-05-22T07:40:59;101660.25;;;18.16;100.00
12247;BME280;6186;52.022;4.692;2023-05-22T07:43:24;101665.84;;;18.30;100.00
12247;BME280;6186;52.022;4.692;2023-05-22T07:45:50;101660.88;;;18.43;100.00
12247;BME280;6186;52.022;4.692;2023-05-22T07:48:15;101654.94;;;18.56;100.00
12247;BME280;6186;52.022;4.692;2023-05-22T07:50:40;101660.66;;;18.67;100.00
12247;BME280;6186;52.022;4.692;2023-05-22T07:53:05;101661.09;;;18.77;100.00
12247;BME280;6186;52.022;4.692;2023-05-22T07:55:30;101662.47;;;18.86;100.00
12247;BME280;6186;52.022;4.692;2023-05-22T07:57:56;101672.94;;;18.90;100.00
12247;BME280;6186;52.022;4.692;2023-05-22T08:00:21;101669.56;;;18.87;100.00
12247;BME280;6186;52.022;4.692;2023-05-22T08:02:47;101660.66;;;18.86;100.00
12247;BME280;6186;52.022;4.692;2023-05-22T08:05:12;101656.94;;;18.90;100.00
12247;BME280;6186;52.022;4.692;2023-05-22T08:07:37;101674.19;;;19.02;100.00
12247;BME280;6186;52.022;4.692;2023-05-22T08:10:05;101672.16;;;19.07;100.00
12247;BME280;6186;52.022;4.692;2023-05-22T08:12:31;101666.72;;;19.08;100.00
12247;BME280;6186;52.022;4.692;2023-05-22T08:14:56;101670.00;;;19.15;100.00
12247;BME280;6186;52.022;4.692;2023-05-22T08:17:21;101671.25;;;19.25;100.00
12247;BME280;6186;52.022;4.692;2023-05-22T08:19:46;101673.22;;;19.40;100.00
12247;BME280;6186;52.022;4.692;2023-05-22T08:22:11;101675.16;;;19.55;100.00
12247;BME280;6186;52.022;4.692;2023-05-22T08:24:37;101673.75;;;19.65;100.00
12247;BME280;6186;52.022;4.692;2023-05-22T08:27:03;101669.53;;;19.78;100.00
12247;BME280;6186;52.022;4.692;2023-05-22T08:29:28;101671.44;;;19.93;100.00
12247;BME280;6186;52.022;4.692;2023-05-22T08:31:53;101665.78;;;19.99;100.00
12247;BME280;6186;52.022;4.692;2023-05-22T08:34:18;101660.84;;;20.09;100.00
12247;BME280;6186;52.022;4.692;2023-05-22T08:36:44;101657.50;;;20.22;100.00
12247;BME280;6186;52.022;4.692;2023-05-22T08:39:09;101650.56;;;20.35;100.00
12247;BME280;6186;52.022;4.692;2023-05-22T08:41:34;101648.09;;;20.48;100.00
12247;BME280;6186;52.022;4.692;2023-05-22T08:44:00;101647.91;;;20.68;100.00
12247;BME280;6186;52.022;4.692;2023-05-22T08:46:25;101651.31;;;20.87;100.00
12247;BME280;6186;52.022;4.692;2023-05-22T08:48:50;101643.31;;;21.03;100.00
12247;BME280;6186;52.022;4.692;2023-05-22T08:51:18;101642.44;;;21.18;100.00
12247;BME280;6186;52.022;4.692;2023-05-22T08:53:44;101638.84;;;21.34;100.00
12247;BME280;6186;52.022;4.692;2023-05-22T08:56:10;101644.25;;;21.48;100.00
12247;BME280;6186;52.022;4.692;2023-05-22T08:58:36;101640.78;;;21.62;100.00
12247;BME280;6186;52.022;4.692;2023-05-22T09:01:03;101630.38;;;21.72;100.00
12247;BME280;6186;52.022;4.692;2023-05-22T09:03:29;101642.13;;;21.85;100.00
12247;BME280;6186;52.022;4.692;2023-05-22T09:05:54;101635.19;;;21.96;100.00
12247;BME280;6186;52.022;4.692;2023-05-22T09:08:19;101639.44;;;22.14;100.00
12247;BME280;6186;52.022;4.692;2023-05-22T09:10:45;101639.28;;;22.31;100.00
12247;BME280;6186;52.022;4.692;2023-05-22T09:13:22;101636.91;;;22.55;100.00
12247;BME280;6186;52.022;4.692;2023-05-22T09:15:48;101628.16;;;22.67;100.00
12247;BME280;6186;52.022;4.692;2023-05-22T09:18:13;101631.47;;;22.85;100.00
12247;BME280;6186;52.022;4.692;2023-05-22T09:20:38;101634.03;;;23.00;100.00
12247;BME280;6186;52.022;4.692;2023-05-22T09:23:11;101631.34;;;23.14;100.00
12247;BME280;6186;52.022;4.692;2023-05-22T09:25:37;101629.44;;;23.43;100.00
12247;BME280;6186;52.022;4.692;2023-05-22T09:28:03;101630.81;;;23.63;100.00
12247;BME280;6186;52.022;4.692;2023-05-22T09:30:28;101625.91;;;23.69;100.00
12247;BME280;6186;52.022;4.692;2023-05-22T09:32:58;101635.47;;;23.73;100.00
12247;BME280;6186;52.022;4.692;2023-05-22T09:35:25;101631.97;;;23.85;100.00
12247;BME280;6186;52.022;4.692;2023-05-22T09:37:50;101635.63;;;24.11;100.00
12247;BME280;6186;52.022;4.692;2023-05-22T09:40:16;101634.44;;;24.27;100.00
12247;BME280;6186;52.022;4.692;2023-05-22T09:42:44;101643.91;;;24.46;100.00
12247;BME280;6186;52.022;4.692;2023-05-22T09:45:10;101625.91;;;24.59;100.00
12247;BME280;6186;52.022;4.692;2023-05-22T09:47:35;101628.06;;;24.66;100.00
12247;BME280;6186;52.022;4.692;2023-05-22T09:50:04;101635.06;;;24.69;100.00
12247;BME280;6186;52.022;4.692;2023-05-22T09:52:34;101633.69;;;24.76;100.00
12247;BME280;6186;52.022;4.692;2023-05-22T09:55:02;101629.69;;;24.81;100.00
12247;BME280;6186;52.022;4.692;2023-05-22T09:57:30;101634.28;;;25.04;100.00
12247;BME280;6186;52.022;4.692;2023-05-22T09:59:56;101627.97;;;25.29;100.00
12247;BME280;6186;52.022;4.692;2023-05-22T10:02:24;101621.00;;;25.50;100.00
12247;BME280;6186;52.022;4.692;2023-05-22T10:04:50;101626.00;;;25.67;100.00
12247;BME280;6186;52.022;4.692;2023-05-22T10:07:21;101622.16;;;25.93;100.00
12247;BME280;6186;52.022;4.692;2023-05-22T10:09:51;101621.28;;;26.17;100.00
12247;BME280;6186;52.022;4.692;2023-05-22T10:12:21;101618.59;;;26.28;100.00
12247;BME280;6186;52.022;4.692;2023-05-22T10:14:47;101621.69;;;26.34;100.00
12247;BME280;6186;52.022;4.692;2023-05-22T10:17:14;101619.75;;;26.36;100.00
12247;BME280;6186;52.022;4.692;2023-05-22T10:19:40;101608.81;;;26.38;100.00
12247;BME280;6186;52.022;4.692;2023-05-22T10:22:06;101616.44;;;26.55;100.00
12247;BME280;6186;52.022;4.692;2023-05-22T10:24:32;101621.41;;;26.72;100.00
12247;BME280;6186;52.022;4.692;2023-05-22T10:26:58;101617.47;;;26.87;100.00
12247;BME280;6186;52.022;4.692;2023-05-22T10:29:29;101620.28;;;26.96;100.00
12247;BME280;6186;52.022;4.692;2023-05-22T10:32:08;101621.38;;;26.94;100.00
12247;BME280;6186;52.022;4.692;2023-05-22T10:34:52;101614.38;;;27.03;100.00
12247;BME280;6186;52.022;4.692;2023-05-22T10:40:06;101619.66;;;26.93;100.00
12247;BME280;6186;52.022;4.692;2023-05-22T10:42:33;101608.84;;;26.71;100.00
12247;BME280;6186;52.022;4.692;2023-05-22T10:45:02;101612.47;;;26.48;100.00
12247;BME280;6186;52.022;4.692;2023-05-22T10:47:28;101607.09;;;26.48;100.00
12247;BME280;6186;52.022;4.692;2023-05-22T10:50:03;101609.69;;;26.49;100.00
12247;BME280;6186;52.022;4.692;2023-05-22T10:52:28;101605.16;;;26.61;100.00
12247;BME280;6186;52.022;4.692;2023-05-22T10:54:55;101607.47;;;26.65;100.00
12247;BME280;6186;52.022;4.692;2023-05-22T10:57:23;101606.66;;;26.76;100.00
12247;BME280;6186;52.022;4.692;2023-05-22T10:59:48;101607.38;;;26.89;100.00
12247;BME280;6186;52.022;4.692;2023-05-22T11:02:21;101605.88;;;27.07;100.00
12247;BME280;6186;52.022;4.692;2023-05-22T11:04:46;101605.34;;;27.24;100.00
12247;BME280;6186;52.022;4.692;2023-05-22T11:07:11;101606.56;;;27.42;100.00
12247;BME280;6186;52.022;4.692;2023-05-22T11:09:41;101603.03;;;27.62;100.00
12247;BME280;6186;52.022;4.692;2023-05-22T11:17:40;101599.09;;;27.98;100.00
12247;BME280;6186;52.022;4.692;2023-05-22T11:20:17;101598.09;;;27.99;100.00
12247;BME280;6186;52.022;4.692;2023-05-22T11:22:56;101595.88;;;27.93;100.00
12247;BME280;6186;52.022;4.692;2023-05-22T11:25:23;101600.94;;;27.98;100.00
12247;BME280;6186;52.022;4.692;2023-05-22T11:27:48;101592.28;;;28.04;100.00
12247;BME280;6186;52.022;4.692;2023-05-22T11:30:14;101593.81;;;28.17;100.00
12247;BME280;6186;52.022;4.692;2023-05-22T11:32:41;101585.81;;;28.16;100.00
12247;BME280;6186;52.022;4.692;2023-05-22T11:35:07;101586.47;;;28.29;100.00
12247;BME280;6186;52.022;4.692;2023-05-22T11:37:37;101579.69;;;28.44;100.00
12247;BME280;6186;52.022;4.692;2023-05-22T11:40:03;101579.16;;;28.50;100.00
12247;BME280;6186;52.022;4.692;2023-05-22T11:42:29;101585.97;;;28.44;100.00
12247;BME280;6186;52.022;4.692;2023-05-22T11:44:54;101585.69;;;28.47;100.00
12247;BME280;6186;52.022;4.692;2023-05-22T11:47:20;101582.84;;;28.49;100.00
12247;BME280;6186;52.022;4.692;2023-05-22T11:49:45;101581.59;;;28.53;100.00
12247;BME280;6186;52.022;4.692;2023-05-22T11:52:10;101582.72;;;28.71;100.00
12247;BME280;6186;52.022;4.692;2023-05-22T11:54:36;101589.88;;;28.82;100.00
12247;BME280;6186;52.022;4.692;2023-05-22T11:57:06;101583.31;;;28.84;100.00
12247;BME280;6186;52.022;4.692;2023-05-22T11:59:31;101587.31;;;28.80;100.00
12247;BME280;6186;52.022;4.692;2023-05-22T12:01:56;101589.88;;;28.82;100.00
12247;BME280;6186;52.022;4.692;2023-05-22T12:04:22;101590.03;;;28.90;100.00
12247;BME280;6186;52.022;4.692;2023-05-22T12:06:47;101602.19;;;28.95;100.00
12247;BME280;6186;52.022;4.692;2023-05-22T12:09:13;101599.19;;;28.98;100.00
12247;BME280;6186;52.022;4.692;2023-05-22T12:11:38;101600.19;;;28.97;100.00
12247;BME280;6186;52.022;4.692;2023-05-22T12:14:03;101601.72;;;28.90;100.00
12247;BME280;6186;52.022;4.692;2023-05-22T12:16:35;101596.72;;;28.86;100.00
12247;BME280;6186;52.022;4.692;2023-05-22T12:19:07;101610.16;;;28.87;100.00
12247;BME280;6186;52.022;4.692;2023-05-22T12:21:33;101601.03;;;28.98;100.00
12247;BME280;6186;52.022;4.692;2023-05-22T12:24:02;101609.34;;;29.06;100.00
12247;BME280;6186;52.022;4.692;2023-05-22T12:26:27;101616.50;;;29.07;100.00
12247;BME280;6186;52.022;4.692;2023-05-22T12:28:53;101618.03;;;29.00;100.00
12247;BME280;6186;52.022;4.692;2023-05-22T12:31:21;101612.13;;;28.85;100.00
12247;BME280;6186;52.022;4.692;2023-05-22T12:33:47;101598.50;;;28.66;100.00
12247;BME280;6186;52.022;4.692;2023-05-22T12:36:12;101610.25;;;28.76;100.00
12247;BME280;6186;52.022;4.692;2023-05-22T12:38:37;101609.81;;;28.71;100.00
12247;BME280;6186;52.022;4.692;2023-05-22T12:41:03;101606.78;;;28.64;100.00
12247;BME280;6186;52.022;4.692;2023-05-22T12:43:28;101622.22;;;28.53;99.56
12247;BME280;6186;52.022;4.692;2023-05-22T12:45:53;101613.66;;;28.48;100.00
12247;BME280;6186;52.022;4.692;2023-05-22T12:48:19;101621.06;;;28.46;99.94
12247;BME280;6186;52.022;4.692;2023-05-22T12:50:45;101613.91;;;28.45;99.74
12247;BME280;6186;52.022;4.692;2023-05-22T12:53:10;101632.69;;;28.37;98.51
12247;BME280;6186;52.022;4.692;2023-05-22T12:55:36;101631.25;;;28.33;98.31
12247;BME280;6186;52.022;4.692;2023-05-22T12:58:01;101633.47;;;28.28;98.22
12247;BME280;6186;52.022;4.692;2023-05-22T13:00:27;101632.38;;;28.30;98.48